sensor_id;sensor_type;location;lat;lon;timestamp;pressure;altitude;pressure_sealevel;temperature;humidity
61908;BME280;47864;52.526;19.672;2022-07-29T00:00:54;101419.94;;;15.40;97.88
61908;BME280;47864;52.526;19.672;2022-07-29T00:02:56;101434.47;;;15.45;98.22
61908;BME280;47864;52.526;19.672;2022-07-29T00:04:58;101419.09;;;15.39;97.78
61908;BME280;47864;52.526;19.672;2022-07-29T00:07:00;101414.34;;;15.25;98.35
61908;BME280;47864;52.526;19.672;2022-07-29T00:09:02;101431.09;;;15.35;98.52
61908;BME280;47864;52.526;19.672;2022-07-29T00:11:04;101413.66;;;15.15;99.63
61908;BME280;47864;52.526;19.672;2022-07-29T00:13:06;101431.59;;;15.31;99.46
61908;BME280;47864;52.526;19.672;2022-07-29T00:15:08;101438.06;;;15.20;99.41
61908;BME280;47864;52.526;19.672;2022-07-29T00:17:10;101416.91;;;15.01;100.00
61908;BME280;47864;52.526;19.672;2022-07-29T00:19:11;101436.31;;;15.03;100.00
61908;BME280;47864;52.526;19.672;2022-07-29T00:21:13;101432.44;;;14.97;100.00
61908;BME280;47864;52.526;19.672;2022-07-29T00:23:15;101436.22;;;14.87;100.00
61908;BME280;47864;52.526;19.672;2022-07-29T00:25:17;101329.69;;;14.06;100.00
61908;BME280;47864;52.526;19.672;2022-07-29T00:27:19;101438.28;;;14.75;100.00
61908;BME280;47864;52.526;19.672;2022-07-29T00:29:20;101427.50;;;14.59;100.00
61908;BME280;47864;52.526;19.672;2022-07-29T00:31:38;101428.09;;;14.70;100.00
61908;BME280;47864;52.526;19.672;2022-07-29T00:33:40;101443.38;;;14.60;100.00
61908;BME280;47864;52.526;19.672;2022-07-29T00:35:41;101446.66;;;14.72;100.00
61908;BME280;47864;52.526;19.672;2022-07-29T00:37:43;101446.69;;;14.80;100.00
61908;BME280;47864;52.526;19.672;2022-07-29T00:39:45;101427.94;;;14.72;100.00
61908;BME280;47864;52.526;19.672;2022-07-29T00:41:47;101444.88;;;14.80;100.00
61908;BME280;47864;52.526;19.672;2022-07-29T00:43:49;101423.75;;;14.69;100.00
61908;BME280;47864;52.526;19.672;2022-07-29T00:45:51;101451.75;;;14.91;100.00
61908;BME280;47864;52.526;19.672;2022-07-29T00:47:53;101431.41;;;14.90;100.00
61908;BME280;47864;52.526;19.672;2022-07-29T00:49:54;101430.22;;;14.93;100.00
61908;BME280;47864;52.526;19.672;2022-07-29T00:51:57;101425.38;;;14.88;100.00
61908;BME280;47864;52.526;19.672;2022-07-29T00:53:59;101451.19;;;15.05;100.00
61908;BME280;47864;52.526;19.672;2022-07-29T00:56:00;101453.69;;;15.07;100.00
61908;BME280;47864;52.526;19.672;2022-07-29T00:58:03;101454.16;;;15.02;100.00
61908;BME280;47864;52.526;19.672;2022-07-29T01:00:07;101449.41;;;14.88;100.00
61908;BME280;47864;52.526;19.672;2022-07-29T01:02:09;101448.53;;;14.79;100.00
61908;BME280;47864;52.526;19.672;2022-07-29T01:04:11;101428.19;;;14.61;100.00
61908;BME280;47864;52.526;19.672;2022-07-29T01:06:16;101438.72;;;14.62;100.00
61908;BME280;47864;52.526;19.672;2022-07-29T01:08:20;101448.72;;;14.60;100.00
61908;BME280;47864;52.526;19.672;2022-07-29T01:10:22;101449.72;;;14.59;100.00
61908;BME280;47864;52.526;19.672;2022-07-29T01:12:26;101442.19;;;14.55;100.00
61908;BME280;47864;52.526;19.672;2022-07-29T01:14:28;101446.47;;;14.48;100.00
61908;BME280;47864;52.526;19.672;2022-07-29T01:16:32;101451.41;;;14.42;100.00
61908;BME280;47864;52.526;19.672;2022-07-29T01:18:39;101448.25;;;14.39;100.00
61908;BME280;47864;52.526;19.672;2022-07-29T01:23:08;101450.19;;;14.37;100.00
61908;BME280;47864;52.526;19.672;2022-07-29T01:25:24;101452.84;;;14.37;100.00
61908;BME280;47864;52.526;19.672;2022-07-29T01:27:44;101421.47;;;14.13;100.00
61908;BME280;47864;52.526;19.672;2022-07-29T01:29:54;101440.28;;;14.29;100.00
61908;BME280;47864;52.526;19.672;2022-07-29T01:32:05;101432.72;;;14.25;100.00
61908;BME280;47864;52.526;19.672;2022-07-29T01:34:27;101446.47;;;14.30;100.00
61908;BME280;47864;52.526;19.672;2022-07-29T01:36:43;101448.28;;;14.29;100.00
61908;BME280;47864;52.526;19.672;2022-07-29T01:38:54;101443.25;;;14.26;100.00
61908;BME280;47864;52.526;19.672;2022-07-29T01:41:15;101442.94;;;14.29;100.00
61908;BME280;47864;52.526;19.672;2022-07-29T01:43:29;101432.13;;;14.13;100.00
61908;BME280;47864;52.526;19.672;2022-07-29T01:45:40;101420.63;;;14.13;100.00
61908;BME280;47864;52.526;19.672;2022-07-29T01:48:47;101450.97;;;14.29;100.00
61908;BME280;47864;52.526;19.672;2022-07-29T01:50:17;101430.47;;;14.12;100.00
61908;BME280;47864;52.526;19.672;2022-07-29T01:52:38;101446.91;;;14.43;100.00
61908;BME280;47864;52.526;19.672;2022-07-29T01:54:49;101451.19;;;14.54;100.00
61908;BME280;47864;52.526;19.672;2022-07-29T01:56:55;101450.69;;;14.58;100.00
61908;BME280;47864;52.526;19.672;2022-07-29T01:58:58;101446.59;;;14.64;100.00
61908;BME280;47864;52.526;19.672;2022-07-29T02:01:01;101445.13;;;14.69;100.00
61908;BME280;47864;52.526;19.672;2022-07-29T02:03:05;101445.13;;;14.69;100.00
61908;BME280;47864;52.526;19.672;2022-07-29T02:05:09;101448.78;;;14.68;100.00
61908;BME280;47864;52.526;19.672;2022-07-29T02:07:17;101422.81;;;14.53;100.00
61908;BME280;47864;52.526;19.672;2022-07-29T02:09:20;101438.94;;;14.69;100.00
61908;BME280;47864;52.526;19.672;2022-07-29T02:11:23;101440.03;;;14.58;100.00
61908;BME280;47864;52.526;19.672;2022-07-29T02:13:25;101443.91;;;14.64;100.00
61908;BME280;47864;52.526;19.672;2022-07-29T02:15:32;101433.19;;;14.56;100.00
61908;BME280;47864;52.526;19.672;2022-07-29T02:17:41;101442.94;;;14.65;100.00
61908;BME280;47864;52.526;19.672;2022-07-29T02:19:44;101419.94;;;14.46;100.00
61908;BME280;47864;52.526;19.672;2022-07-29T02:21:48;101441.19;;;14.56;100.00
61908;BME280;47864;52.526;19.672;2022-07-29T02:23:51;101446.44;;;14.65;100.00
61908;BME280;47864;52.526;19.672;2022-07-29T02:25:56;101447.16;;;14.75;100.00
61908;BME280;47864;52.526;19.672;2022-07-29T02:27:59;101444.75;;;14.64;100.00
61908;BME280;47864;52.526;19.672;2022-07-29T02:30:03;101443.06;;;14.63;100.00
61908;BME280;47864;52.526;19.672;2022-07-29T02:32:07;101436.91;;;14.63;100.00
61908;BME280;47864;52.526;19.672;2022-07-29T02:34:12;101429.88;;;14.62;100.00
61908;BME280;47864;52.526;19.672;2022-07-29T02:36:22;101414.34;;;14.57;100.00
61908;BME280;47864;52.526;19.672;2022-07-29T02:38:25;101424.06;;;14.66;100.00
61908;BME280;47864;52.526;19.672;2022-07-29T02:40:28;101442.53;;;14.85;100.00
61908;BME280;47864;52.526;19.672;2022-07-29T02:42:31;101437.50;;;14.82;100.00
61908;BME280;47864;52.526;19.672;2022-07-29T02:44:34;101418.09;;;14.72;100.00
61908;BME280;47864;52.526;19.672;2022-07-29T02:46:39;101423.91;;;14.68;100.00
61908;BME280;47864;52.526;19.672;2022-07-29T02:49:02;101446.78;;;14.70;100.00
61908;BME280;47864;52.526;19.672;2022-07-29T02:51:10;101437.69;;;14.55;100.00
61908;BME280;47864;52.526;19.672;2022-07-29T02:53:34;101448.22;;;14.57;100.00
61908;BME280;47864;52.526;19.672;2022-07-29T02:55:57;101449.72;;;14.59;100.00
61908;BME280;47864;52.526;19.672;2022-07-29T02:58:09;101428.78;;;14.46;100.00
61908;BME280;47864;52.526;19.672;2022-07-29T03:00:15;101448.22;;;14.57;100.00
61908;BME280;47864;52.526;19.672;2022-07-29T03:02:18;101443.06;;;14.63;100.00
61908;BME280;47864;52.526;19.672;2022-07-29T03:04:21;101436.91;;;14.63;100.00
61908;BME280;47864;52.526;19.672;2022-07-29T03:06:26;101442.75;;;14.66;100.00
61908;BME280;47864;52.526;19.672;2022-07-29T03:08:39;101425.81;;;14.58;100.00
61908;BME280;47864;52.526;19.672;2022-07-29T03:10:44;101430.22;;;14.67;100.00
61908;BME280;47864;52.526;19.672;2022-07-29T03:12:47;101432.75;;;14.68;100.00
61908;BME280;47864;52.526;19.672;2022-07-29T03:14:50;101419.03;;;14.63;100.00
61908;BME280;47864;52.526;19.672;2022-07-29T03:16:53;101433.44;;;14.70;100.00
61908;BME280;47864;52.526;19.672;2022-07-29T03:18:55;101434.44;;;14.69;100.00
61908;BME280;47864;52.526;19.672;2022-07-29T03:20:58;101435.16;;;14.79;100.00
61908;BME280;47864;52.526;19.672;2022-07-29T03:23:00;101436.84;;;14.80;100.00
61908;BME280;47864;52.526;19.672;2022-07-29T03:25:12;101446.84;;;14.78;100.00
61908;BME280;47864;52.526;19.672;2022-07-29T03:27:14;101450.34;;;14.79;100.00
61908;BME280;47864;52.526;19.672;2022-07-29T03:29:16;101449.22;;;14.81;100.00
61908;BME280;47864;52.526;19.672;2022-07-29T03:31:20;101440.81;;;14.76;100.00
61908;BME280;47864;52.526;19.672;2022-07-29T03:33:22;101444.31;;;14.77;100.00
61908;BME280;47864;52.526;19.672;2022-07-29T03:35:24;101439.38;;;14.82;100.00
61908;BME280;47864;52.526;19.672;2022-07-29T03:37:26;101451.00;;;14.73;100.00
61908;BME280;47864;52.526;19.672;2022-07-29T03:39:31;101444.28;;;14.69;100.00
61908;BME280;47864;52.526;19.672;2022-07-29T03:41:36;101449.81;;;14.75;100.00
61908;BME280;47864;52.526;19.672;2022-07-29T03:43:40;101449.22;;;14.81;100.00
61908;BME280;47864;52.526;19.672;2022-07-29T03:45:52;101449.91;;;14.92;100.00
61908;BME280;47864;52.526;19.672;2022-07-29T03:48:02;101449.25;;;14.90;100.00
61908;BME280;47864;52.526;19.672;2022-07-29T03:50:08;101444.88;;;14.80;100.00
61908;BME280;47864;52.526;19.672;2022-07-29T03:52:12;101417.66;;;14.59;100.00
61908;BME280;47864;52.526;19.672;2022-07-29T03:54:14;101432.13;;;14.74;100.00
61908;BME280;47864;52.526;19.672;2022-07-29T03:56:17;101453.31;;;15.02;100.00
61908;BME280;47864;52.526;19.672;2022-07-29T03:58:23;101407.78;;;14.77;100.00
61908;BME280;47864;52.526;19.672;2022-07-29T04:00:27;101448.97;;;15.01;100.00
61908;BME280;47864;52.526;19.672;2022-07-29T04:02:29;101444.00;;;15.06;100.00
61908;BME280;47864;52.526;19.672;2022-07-29T04:04:35;101419.72;;;14.99;100.00
61908;BME280;47864;52.526;19.672;2022-07-29T04:06:45;101446.38;;;15.17;100.00
61908;BME280;47864;52.526;19.672;2022-07-29T04:08:48;101443.72;;;15.17;100.00
61908;BME280;47864;52.526;19.672;2022-07-29T04:10:50;101444.25;;;15.20;100.00
61908;BME280;47864;52.526;19.672;2022-07-29T04:12:52;101435.34;;;15.12;100.00
61908;BME280;47864;52.526;19.672;2022-07-29T04:14:54;101455.50;;;15.40;100.00
61908;BME280;47864;52.526;19.672;2022-07-29T04:16:56;101456.63;;;15.55;100.00
61908;BME280;47864;52.526;19.672;2022-07-29T04:18:58;101461.97;;;15.55;100.00
61908;BME280;47864;52.526;19.672;2022-07-29T04:21:00;101454.22;;;15.52;100.00
61908;BME280;47864;52.526;19.672;2022-07-29T04:23:02;101457.97;;;15.68;100.00
61908;BME280;47864;52.526;19.672;2022-07-29T04:25:04;101469.06;;;15.81;100.00
61908;BME280;47864;52.526;19.672;2022-07-29T04:27:06;101455.16;;;15.77;100.00
61908;BME280;47864;52.526;19.672;2022-07-29T04:29:08;101439.63;;;15.81;100.00
61908;BME280;47864;52.526;19.672;2022-07-29T04:31:11;101456.38;;;16.07;100.00
61908;BME280;47864;52.526;19.672;2022-07-29T04:33:13;101458.75;;;16.18;100.00
61908;BME280;47864;52.526;19.672;2022-07-29T04:35:15;101463.44;;;16.24;100.00
61908;BME280;47864;52.526;19.672;2022-07-29T04:37:16;101467.63;;;16.43;100.00
61908;BME280;47864;52.526;19.672;2022-07-29T04:39:18;101486.22;;;16.53;100.00
61908;BME280;47864;52.526;19.672;2022-07-29T04:41:23;101475.53;;;16.61;100.00
61908;BME280;47864;52.526;19.672;2022-07-29T04:43:34;101456.75;;;16.69;100.00
61908;BME280;47864;52.526;19.672;2022-07-29T04:45:37;101476.34;;;16.78;100.00
61908;BME280;47864;52.526;19.672;2022-07-29T04:47:39;101480.66;;;16.95;100.00
61908;BME280;47864;52.526;19.672;2022-07-29T04:49:41;101481.28;;;17.13;100.00
61908;BME280;47864;52.526;19.672;2022-07-29T04:51:43;101465.66;;;17.25;100.00
61908;BME280;47864;52.526;19.672;2022-07-29T04:53:44;101474.34;;;17.35;100.00
61908;BME280;47864;52.526;19.672;2022-07-29T04:55:46;101472.91;;;17.55;100.00
61908;BME280;47864;52.526;19.672;2022-07-29T04:57:48;101472.94;;;17.47;99.98
61908;BME280;47864;52.526;19.672;2022-07-29T04:59:50;101467.03;;;17.21;100.00
61908;BME280;47864;52.526;19.672;2022-07-29T05:01:52;101464.41;;;17.04;100.00
61908;BME280;47864;52.526;19.672;2022-07-29T05:03:54;101475.56;;;17.16;100.00
61908;BME280;47864;52.526;19.672;2022-07-29T05:06:00;101470.31;;;17.31;100.00
61908;BME280;47864;52.526;19.672;2022-07-29T05:08:03;101480.56;;;17.35;100.00
61908;BME280;47864;52.526;19.672;2022-07-29T05:10:05;101466.50;;;17.25;100.00
61908;BME280;47864;52.526;19.672;2022-07-29T05:12:07;101483.03;;;17.45;100.00
61908;BME280;47864;52.526;19.672;2022-07-29T05:14:09;101478.94;;;17.65;98.45
61908;BME280;47864;52.526;19.672;2022-07-29T05:16:11;101470.50;;;17.37;97.25
61908;BME280;47864;52.526;19.672;2022-07-29T05:18:13;101477.25;;;17.56;96.81
61908;BME280;47864;52.526;19.672;2022-07-29T05:20:15;101475.88;;;17.76;95.38
61908;BME280;47864;52.526;19.672;2022-07-29T05:22:18;101472.13;;;17.85;94.50
61908;BME280;47864;52.526;19.672;2022-07-29T05:24:20;101485.97;;;17.97;92.79
61908;BME280;47864;52.526;19.672;2022-07-29T05:26:22;101474.66;;;17.79;92.06
61908;BME280;47864;52.526;19.672;2022-07-29T05:28:24;101470.31;;;17.78;92.64
61908;BME280;47864;52.526;19.672;2022-07-29T05:30:26;101475.88;;;17.99;90.90
61908;BME280;47864;52.526;19.672;2022-07-29T05:32:27;101475.78;;;17.93;91.59
61908;BME280;47864;52.526;19.672;2022-07-29T05:34:30;101478.97;;;17.88;90.61
61908;BME280;47864;52.526;19.672;2022-07-29T05:36:31;101478.91;;;17.96;89.82
61908;BME280;47864;52.526;19.672;2022-07-29T05:38:34;101474.53;;;18.03;89.32
61908;BME280;47864;52.526;19.672;2022-07-29T05:40:36;101460.63;;;18.00;89.45
61908;BME280;47864;52.526;19.672;2022-07-29T05:42:38;101470.41;;;18.15;89.16
61908;BME280;47864;52.526;19.672;2022-07-29T05:44:40;101441.09;;;18.29;86.84
61908;BME280;47864;52.526;19.672;2022-07-29T05:46:42;101470.44;;;18.76;85.96
61908;BME280;47864;52.526;19.672;2022-07-29T05:48:45;101471.97;;;18.70;84.98
61908;BME280;47864;52.526;19.672;2022-07-29T05:50:47;101471.91;;;18.78;86.19
61908;BME280;47864;52.526;19.672;2022-07-29T05:52:49;101469.81;;;19.18;83.56
61908;BME280;47864;52.526;19.672;2022-07-29T05:54:50;101484.06;;;18.89;82.17
61908;BME280;47864;52.526;19.672;2022-07-29T05:56:52;101463.81;;;18.63;84.51
61908;BME280;47864;52.526;19.672;2022-07-29T05:58:54;101473.53;;;19.02;82.98
61908;BME280;47864;52.526;19.672;2022-07-29T06:00:56;101452.09;;;19.23;81.35
61908;BME280;47864;52.526;19.672;2022-07-29T06:02:58;101453.28;;;19.35;78.84
61908;BME280;47864;52.526;19.672;2022-07-29T06:05:00;101452.19;;;19.15;80.02
61908;BME280;47864;52.526;19.672;2022-07-29T06:07:02;101473.25;;;19.56;80.53
61908;BME280;47864;52.526;19.672;2022-07-29T06:09:04;101473.34;;;19.98;78.53
61908;BME280;47864;52.526;19.672;2022-07-29T06:11:13;101460.25;;;19.95;76.85
61908;BME280;47864;52.526;19.672;2022-07-29T06:13:15;101472.16;;;19.86;76.66
61908;BME280;47864;52.526;19.672;2022-07-29T06:15:17;101463.44;;;20.27;74.75
61908;BME280;47864;52.526;19.672;2022-07-29T06:17:18;101463.44;;;20.41;73.76
61908;BME280;47864;52.526;19.672;2022-07-29T06:19:20;101468.06;;;21.10;71.93
61908;BME280;47864;52.526;19.672;2022-07-29T06:21:22;101449.50;;;20.94;69.29
61908;BME280;47864;52.526;19.672;2022-07-29T06:23:24;101472.91;;;21.55;68.65
61908;BME280;47864;52.526;19.672;2022-07-29T06:25:26;101473.09;;;22.08;67.67
61908;BME280;47864;52.526;19.672;2022-07-29T06:27:28;101464.59;;;22.57;64.57
61908;BME280;47864;52.526;19.672;2022-07-29T06:29:31;101444.19;;;23.14;61.19
61908;BME280;47864;52.526;19.672;2022-07-29T06:31:32;101461.34;;;23.52;61.11
61908;BME280;47864;52.526;19.672;2022-07-29T06:33:34;101465.09;;;23.96;59.04
61908;BME280;47864;52.526;19.672;2022-07-29T06:35:36;101467.88;;;23.83;58.56
61908;BME280;47864;52.526;19.672;2022-07-29T06:37:42;101462.97;;;24.05;57.88
61908;BME280;47864;52.526;19.672;2022-07-29T06:39:46;101449.34;;;23.80;56.79
61908;BME280;47864;52.526;19.672;2022-07-29T06:41:49;101473.72;;;23.15;59.17
61908;BME280;47864;52.526;19.672;2022-07-29T06:43:51;101472.41;;;23.51;59.01
61908;BME280;47864;52.526;19.672;2022-07-29T06:46:06;101473.50;;;23.24;59.44
61908;BME280;47864;52.526;19.672;2022-07-29T06:48:09;101464.22;;;23.58;58.39
61908;BME280;47864;52.526;19.672;2022-07-29T06:50:11;101462.78;;;23.62;58.44
61908;BME280;47864;52.526;19.672;2022-07-29T06:52:13;101467.41;;;23.93;57.48
61908;BME280;47864;52.526;19.672;2022-07-29T06:54:15;101457.41;;;24.24;55.09
61908;BME280;47864;52.526;19.672;2022-07-29T06:56:17;101467.66;;;24.16;56.57
61908;BME280;47864;52.526;19.672;2022-07-29T06:58:19;101466.00;;;24.46;54.96
61908;BME280;47864;52.526;19.672;2022-07-29T07:00:22;101448.00;;;23.96;56.66
61908;BME280;47864;52.526;19.672;2022-07-29T07:02:23;101463.06;;;23.85;56.79
61908;BME280;47864;52.526;19.672;2022-07-29T07:04:25;101459.69;;;23.96;56.87
61908;BME280;47864;52.526;19.672;2022-07-29T07:06:27;101465.22;;;24.39;55.68
61908;BME280;47864;52.526;19.672;2022-07-29T07:08:29;101453.25;;;24.22;55.28
61908;BME280;47864;52.526;19.672;2022-07-29T07:10:32;101435.28;;;23.58;56.97
61908;BME280;47864;52.526;19.672;2022-07-29T07:12:34;101453.44;;;24.27;56.65
61908;BME280;47864;52.526;19.672;2022-07-29T07:14:36;101448.28;;;24.69;55.07
61908;BME280;47864;52.526;19.672;2022-07-29T07:16:38;101434.28;;;24.90;53.38
61908;BME280;47864;52.526;19.672;2022-07-29T07:18:40;101444.59;;;25.06;53.31
61908;BME280;47864;52.526;19.672;2022-07-29T07:20:42;101459.88;;;23.95;55.92
61908;BME280;47864;52.526;19.672;2022-07-29T07:22:43;101436.09;;;24.78;54.03
61908;BME280;47864;52.526;19.672;2022-07-29T07:24:45;101439.25;;;25.36;52.25
61908;BME280;47864;52.526;19.672;2022-07-29T07:26:47;101455.84;;;25.94;50.84
61908;BME280;47864;52.526;19.672;2022-07-29T07:28:49;101449.47;;;25.70;51.22
61908;BME280;47864;52.526;19.672;2022-07-29T07:30:51;101452.47;;;26.10;49.63
61908;BME280;47864;52.526;19.672;2022-07-29T07:32:54;101452.47;;;26.10;49.53
61908;BME280;47864;52.526;19.672;2022-07-29T07:34:56;101455.59;;;25.66;51.14
61908;BME280;47864;52.526;19.672;2022-07-29T07:36:59;101445.25;;;25.38;52.47
61908;BME280;47864;52.526;19.672;2022-07-29T07:39:01;101445.69;;;26.01;50.20
61908;BME280;47864;52.526;19.672;2022-07-29T07:41:04;101454.78;;;24.92;51.88
61908;BME280;47864;52.526;19.672;2022-07-29T07:43:05;101455.38;;;25.49;51.87
61908;BME280;47864;52.526;19.672;2022-07-29T07:45:08;101454.91;;;25.70;51.83
61908;BME280;47864;52.526;19.672;2022-07-29T07:47:17;101454.38;;;25.62;51.20
61908;BME280;47864;52.526;19.672;2022-07-29T07:49:19;101446.63;;;25.29;51.87
61908;BME280;47864;52.526;19.672;2022-07-29T07:51:21;101423.34;;;25.03;52.80
61908;BME280;47864;52.526;19.672;2022-07-29T07:53:22;101425.66;;;24.99;51.78
61908;BME280;47864;52.526;19.672;2022-07-29T07:55:25;101420.38;;;25.23;50.52
61908;BME280;47864;52.526;19.672;2022-07-29T07:57:27;101431.97;;;25.66;50.95
61908;BME280;47864;52.526;19.672;2022-07-29T07:59:29;101451.38;;;26.00;50.68
61908;BME280;47864;52.526;19.672;2022-07-29T08:01:31;101440.25;;;26.43;48.95
61908;BME280;47864;52.526;19.672;2022-07-29T08:03:53;101442.97;;;26.78;47.96
61908;BME280;47864;52.526;19.672;2022-07-29T08:05:55;101446.53;;;26.67;46.85
61908;BME280;47864;52.526;19.672;2022-07-29T08:07:57;101426.88;;;26.88;46.20
61908;BME280;47864;52.526;19.672;2022-07-29T08:09:59;101442.84;;;26.38;46.79
61908;BME280;47864;52.526;19.672;2022-07-29T08:12:00;101442.97;;;25.53;47.96
61908;BME280;47864;52.526;19.672;2022-07-29T08:14:03;101429.03;;;25.50;49.31
61908;BME280;47864;52.526;19.672;2022-07-29T08:16:05;101439.34;;;25.77;48.15
61908;BME280;47864;52.526;19.672;2022-07-29T08:18:07;101445.00;;;25.58;48.65
61908;BME280;47864;52.526;19.672;2022-07-29T08:20:09;101449.22;;;25.54;49.29
61908;BME280;47864;52.526;19.672;2022-07-29T08:22:11;101428.19;;;25.49;49.37
61908;BME280;47864;52.526;19.672;2022-07-29T08:24:13;101451.38;;;26.11;48.48
61908;BME280;47864;52.526;19.672;2022-07-29T08:26:15;101449.38;;;26.07;47.92
61908;BME280;47864;52.526;19.672;2022-07-29T08:28:17;101436.44;;;25.24;47.88
61908;BME280;47864;52.526;19.672;2022-07-29T08:30:19;101430.09;;;25.30;48.63
61908;BME280;47864;52.526;19.672;2022-07-29T08:32:20;101448.28;;;25.48;48.45
61908;BME280;47864;52.526;19.672;2022-07-29T08:34:42;101384.41;;;24.23;50.67
61908;BME280;47864;52.526;19.672;2022-07-29T08:36:44;101456.16;;;25.20;50.01
61908;BME280;47864;52.526;19.672;2022-07-29T08:38:51;101455.69;;;25.41;50.74
61908;BME280;47864;52.526;19.672;2022-07-29T08:40:53;101453.50;;;25.13;50.16
61908;BME280;47864;52.526;19.672;2022-07-29T08:42:55;101443.84;;;25.35;49.87
61908;BME280;47864;52.526;19.672;2022-07-29T08:44:57;101440.75;;;25.14;50.13
61908;BME280;47864;52.526;19.672;2022-07-29T08:46:59;101453.88;;;24.74;49.92
61908;BME280;47864;52.526;19.672;2022-07-29T08:49:01;101446.13;;;24.27;52.11
61908;BME280;47864;52.526;19.672;2022-07-29T08:51:06;101439.47;;;24.23;53.42
61908;BME280;47864;52.526;19.672;2022-07-29T08:53:12;101445.38;;;24.70;52.23
61908;BME280;47864;52.526;19.672;2022-07-29T08:55:15;101445.03;;;25.39;50.36
61908;BME280;47864;52.526;19.672;2022-07-29T08:57:22;101427.75;;;25.52;49.93
61908;BME280;47864;52.526;19.672;2022-07-29T08:59:27;101449.63;;;25.75;48.74
61908;BME280;47864;52.526;19.672;2022-07-29T09:01:33;101453.03;;;25.53;49.12
61908;BME280;47864;52.526;19.672;2022-07-29T09:03:43;101434.03;;;24.98;50.20
61908;BME280;47864;52.526;19.672;2022-07-29T09:05:46;101431.44;;;24.85;49.48
61908;BME280;47864;52.526;19.672;2022-07-29T09:07:49;101430.25;;;24.99;50.36
61908;BME280;47864;52.526;19.672;2022-07-29T09:09:51;101440.47;;;24.79;50.23
61908;BME280;47864;52.526;19.672;2022-07-29T09:11:56;101433.50;;;25.08;50.02
61908;BME280;47864;52.526;19.672;2022-07-29T09:13:59;101422.03;;;25.60;49.36
61908;BME280;47864;52.526;19.672;2022-07-29T09:16:01;101419.44;;;25.47;47.14
61908;BME280;47864;52.526;19.672;2022-07-29T09:18:09;101405.94;;;25.59;47.51
61908;BME280;47864;52.526;19.672;2022-07-29T09:20:30;101402.97;;;25.90;47.47
61908;BME280;47864;52.526;19.672;2022-07-29T09:22:32;101405.41;;;25.68;48.33
61908;BME280;47864;52.526;19.672;2022-07-29T09:24:46;101432.28;;;25.22;47.01
61908;BME280;47864;52.526;19.672;2022-07-29T09:26:48;101422.72;;;25.01;47.65
61908;BME280;47864;52.526;19.672;2022-07-29T09:28:50;101421.91;;;25.00;47.11
61908;BME280;47864;52.526;19.672;2022-07-29T09:30:54;101423.22;;;25.46;46.60
61908;BME280;47864;52.526;19.672;2022-07-29T09:32:58;101414.84;;;25.29;46.22
61908;BME280;47864;52.526;19.672;2022-07-29T09:35:24;101430.59;;;25.57;45.60
61908;BME280;47864;52.526;19.672;2022-07-29T09:37:27;101403.19;;;25.77;45.68
61908;BME280;47864;52.526;19.672;2022-07-29T09:39:36;101422.94;;;25.84;46.65
61908;BME280;47864;52.526;19.672;2022-07-29T09:41:48;101361.53;;;25.65;44.64
61908;BME280;47864;52.526;19.672;2022-07-29T09:43:55;101410.50;;;25.76;44.73
61908;BME280;47864;52.526;19.672;2022-07-29T09:46:10;101400.91;;;25.26;46.11
61908;BME280;47864;52.526;19.672;2022-07-29T09:48:14;101400.41;;;24.99;45.92
61908;BME280;47864;52.526;19.672;2022-07-29T09:50:17;101404.91;;;24.87;46.38
61908;BME280;47864;52.526;19.672;2022-07-29T09:52:21;101370.66;;;24.68;46.41
61908;BME280;47864;52.526;19.672;2022-07-29T09:54:24;101404.16;;;24.98;46.59
61908;BME280;47864;52.526;19.672;2022-07-29T09:56:42;101397.78;;;24.68;46.33
61908;BME280;47864;52.526;19.672;2022-07-29T09:58:43;101404.03;;;24.93;45.09
61908;BME280;47864;52.526;19.672;2022-07-29T10:00:47;101396.84;;;24.98;45.72
61908;BME280;47864;52.526;19.672;2022-07-29T10:02:59;101413.75;;;25.00;44.02
61908;BME280;47864;52.526;19.672;2022-07-29T10:05:03;101417.75;;;24.73;44.38
61908;BME280;47864;52.526;19.672;2022-07-29T10:07:06;101417.38;;;24.88;42.45
61908;BME280;47864;52.526;19.672;2022-07-29T10:09:09;101402.88;;;24.57;42.42
61908;BME280;47864;52.526;19.672;2022-07-29T10:11:16;101419.72;;;24.41;43.25
61908;BME280;47864;52.526;19.672;2022-07-29T10:13:18;101389.44;;;24.19;43.79
61908;BME280;47864;52.526;19.672;2022-07-29T10:15:24;101406.16;;;24.41;43.94
61908;BME280;47864;52.526;19.672;2022-07-29T10:17:26;101404.13;;;24.05;44.75
61908;BME280;47864;52.526;19.672;2022-07-29T10:19:29;101395.78;;;24.56;44.00
61908;BME280;47864;52.526;19.672;2022-07-29T10:21:32;101393.59;;;24.22;44.68
61908;BME280;47864;52.526;19.672;2022-07-29T10:23:37;101389.44;;;24.69;44.43
61908;BME280;47864;52.526;19.672;2022-07-29T10:25:48;101390.53;;;24.80;44.06
61908;BME280;47864;52.526;19.672;2022-07-29T10:27:50;101366.63;;;24.52;44.58
61908;BME280;47864;52.526;19.672;2022-07-29T10:29:53;101371.88;;;24.47;45.02
61908;BME280;47864;52.526;19.672;2022-07-29T10:34:31;101386.63;;;25.30;44.31
61908;BME280;47864;52.526;19.672;2022-07-29T10:37:20;101385.91;;;25.23;44.07
61908;BME280;47864;52.526;19.672;2022-07-29T10:39:38;101382.63;;;25.51;43.48
61908;BME280;47864;52.526;19.672;2022-07-29T10:41:56;101388.16;;;25.45;43.11
61908;BME280;47864;52.526;19.672;2022-07-29T10:44:05;101380.44;;;25.60;43.60